sensor_id;sensor_type;location;lat;lon;timestamp;P1;durP1;ratioP1;P2;durP2;ratioP2
54983;SDS011;40884;53.562;9.940;2022-07-24T00:00:20;4.30;;;2.90;;
54983;SDS011;40884;53.562;9.940;2022-07-24T00:01:20;4.77;;;3.40;;
54983;SDS011;40884;53.562;9.940;2022-07-24T00:02:20;5.20;;;2.90;;
54983;SDS011;40884;53.562;9.940;2022-07-24T00:03:20;3.70;;;3.33;;
54983;SDS011;40884;53.562;9.940;2022-07-24T00:04:21;5.90;;;3.20;;
54983;SDS011;40884;53.562;9.940;2022-07-24T00:05:21;5.23;;;3.00;;
54983;SDS011;40884;53.562;9.940;2022-07-24T00:06:21;4.03;;;3.10;;
54983;SDS011;40884;53.562;9.940;2022-07-24T00:07:21;7.73;;;3.23;;
54983;SDS011;40884;53.562;9.940;2022-07-24T00:08:21;4.33;;;3.10;;
54983;SDS011;40884;53.562;9.940;2022-07-24T00:09:21;4.17;;;3.20;;
54983;SDS011;40884;53.562;9.940;2022-07-24T00:10:22;4.90;;;3.53;;
54983;SDS011;40884;53.562;9.940;2022-07-24T00:11:22;6.00;;;3.07;;
54983;SDS011;40884;53.562;9.940;2022-07-24T00:12:22;4.23;;;3.13;;
54983;SDS011;40884;53.562;9.940;2022-07-24T00:13:22;3.70;;;3.10;;
54983;SDS011;40884;53.562;9.940;2022-07-24T00:14:22;4.10;;;3.00;;
54983;SDS011;40884;53.562;9.940;2022-07-24T00:15:22;4.13;;;2.90;;
54983;SDS011;40884;53.562;9.940;2022-07-24T00:16:23;3.93;;;3.13;;
54983;SDS011;40884;53.562;9.940;2022-07-24T00:17:23;4.93;;;3.43;;
54983;SDS011;40884;53.562;9.940;2022-07-24T00:18:23;3.70;;;3.10;;
54983;SDS011;40884;53.562;9.940;2022-07-24T00:19:23;4.50;;;2.80;;
54983;SDS011;40884;53.562;9.940;2022-07-24T00:20:23;4.17;;;3.27;;
54983;SDS011;40884;53.562;9.940;2022-07-24T00:21:24;3.57;;;3.07;;
54983;SDS011;40884;53.562;9.940;2022-07-24T00:22:24;4.40;;;3.00;;
54983;SDS011;40884;53.562;9.940;2022-07-24T00:23:24;4.27;;;3.20;;
54983;SDS011;40884;53.562;9.940;2022-07-24T00:24:24;3.47;;;2.80;;
54983;SDS011;40884;53.562;9.940;2022-07-24T00:25:24;3.30;;;3.00;;
54983;SDS011;40884;53.562;9.940;2022-07-24T00:26:24;3.67;;;3.00;;
54983;SDS011;40884;53.562;9.940;2022-07-24T00:27:25;3.97;;;3.30;;
54983;SDS011;40884;53.562;9.940;2022-07-24T00:28:25;4.17;;;3.03;;
54983;SDS011;40884;53.562;9.940;2022-07-24T00:29:25;4.43;;;3.30;;
54983;SDS011;40884;53.562;9.940;2022-07-24T00:30:25;3.40;;;3.00;;
54983;SDS011;40884;53.562;9.940;2022-07-24T00:31:25;4.47;;;3.00;;
54983;SDS011;40884;53.562;9.940;2022-07-24T00:32:26;6.27;;;3.57;;
54983;SDS011;40884;53.562;9.940;2022-07-24T00:33:26;4.17;;;3.13;;
54983;SDS011;40884;53.562;9.940;2022-07-24T00:34:26;6.80;;;3.73;;
54983;SDS011;40884;53.562;9.940;2022-07-24T00:35:26;7.57;;;3.73;;
54983;SDS011;40884;53.562;9.940;2022-07-24T00:36:26;5.57;;;3.20;;
54983;SDS011;40884;53.562;9.940;2022-07-24T00:37:27;4.67;;;3.13;;
54983;SDS011;40884;53.562;9.940;2022-07-24T00:38:27;3.73;;;3.30;;
54983;SDS011;40884;53.562;9.940;2022-07-24T00:39:27;4.97;;;3.23;;
54983;SDS011;40884;53.562;9.940;2022-07-24T00:40:27;5.23;;;3.70;;
54983;SDS011;40884;53.562;9.940;2022-07-24T00:41:27;6.23;;;3.40;;
54983;SDS011;40884;53.562;9.940;2022-07-24T00:42:28;5.53;;;3.53;;
54983;SDS011;40884;53.562;9.940;2022-07-24T00:43:28;3.63;;;3.33;;
54983;SDS011;40884;53.562;9.940;2022-07-24T00:44:28;5.67;;;3.17;;
54983;SDS011;40884;53.562;9.940;2022-07-24T00:45:28;6.07;;;3.50;;
54983;SDS011;40884;53.562;9.940;2022-07-24T00:46:28;4.77;;;3.20;;
54983;SDS011;40884;53.562;9.940;2022-07-24T00:47:28;5.07;;;3.03;;
54983;SDS011;40884;53.562;9.940;2022-07-24T00:48:29;3.87;;;3.13;;
54983;SDS011;40884;53.562;9.940;2022-07-24T00:49:29;5.10;;;3.60;;
54983;SDS011;40884;53.562;9.940;2022-07-24T00:50:29;5.37;;;3.43;;
54983;SDS011;40884;53.562;9.940;2022-07-24T00:51:29;4.97;;;3.00;;
54983;SDS011;40884;53.562;9.940;2022-07-24T00:52:29;4.17;;;3.47;;
54983;SDS011;40884;53.562;9.940;2022-07-24T00:53:30;3.87;;;3.17;;
54983;SDS011;40884;53.562;9.940;2022-07-24T00:54:30;4.80;;;3.33;;
54983;SDS011;40884;53.562;9.940;2022-07-24T00:55:30;6.10;;;3.27;;
54983;SDS011;40884;53.562;9.940;2022-07-24T00:56:32;4.60;;;3.27;;
54983;SDS011;40884;53.562;9.940;2022-07-24T00:57:32;4.23;;;3.20;;
54983;SDS011;40884;53.562;9.940;2022-07-24T00:58:32;4.83;;;3.40;;
54983;SDS011;40884;53.562;9.940;2022-07-24T00:59:32;3.93;;;3.30;;
54983;SDS011;40884;53.562;9.940;2022-07-24T01:00:33;5.17;;;3.30;;
54983;SDS011;40884;53.562;9.940;2022-07-24T01:01:33;6.17;;;3.23;;
54983;SDS011;40884;53.562;9.940;2022-07-24T01:02:34;3.50;;;3.10;;
54983;SDS011;40884;53.562;9.940;2022-07-24T01:03:34;3.80;;;3.40;;
54983;SDS011;40884;53.562;9.940;2022-07-24T01:04:34;5.07;;;3.10;;
54983;SDS011;40884;53.562;9.940;2022-07-24T01:05:34;4.37;;;3.50;;
54983;SDS011;40884;53.562;9.940;2022-07-24T01:06:34;4.90;;;3.13;;
54983;SDS011;40884;53.562;9.940;2022-07-24T01:07:35;4.57;;;3.20;;
54983;SDS011;40884;53.562;9.940;2022-07-24T01:08:35;4.47;;;3.30;;
54983;SDS011;40884;53.562;9.940;2022-07-24T01:09:35;4.43;;;3.40;;
54983;SDS011;40884;53.562;9.940;2022-07-24T01:10:35;3.57;;;2.73;;
54983;SDS011;40884;53.562;9.940;2022-07-24T01:11:36;4.23;;;2.97;;
54983;SDS011;40884;53.562;9.940;2022-07-24T01:12:37;4.27;;;3.00;;
54983;SDS011;40884;53.562;9.940;2022-07-24T01:13:37;3.63;;;3.17;;
54983;SDS011;40884;53.562;9.940;2022-07-24T01:14:38;4.27;;;2.60;;
54983;SDS011;40884;53.562;9.940;2022-07-24T01:15:38;5.40;;;3.27;;
54983;SDS011;40884;53.562;9.940;2022-07-24T01:16:39;6.43;;;3.37;;
54983;SDS011;40884;53.562;9.940;2022-07-24T01:17:39;3.47;;;3.10;;
54983;SDS011;40884;53.562;9.940;2022-07-24T01:18:40;3.10;;;2.63;;
54983;SDS011;40884;53.562;9.940;2022-07-24T01:19:40;3.80;;;3.17;;
54983;SDS011;40884;53.562;9.940;2022-07-24T01:20:40;4.40;;;3.00;;
54983;SDS011;40884;53.562;9.940;2022-07-24T01:21:46;4.30;;;3.30;;
54983;SDS011;40884;53.562;9.940;2022-07-24T01:22:47;4.77;;;2.87;;
54983;SDS011;40884;53.562;9.940;2022-07-24T01:23:47;4.53;;;3.00;;
54983;SDS011;40884;53.562;9.940;2022-07-24T01:24:47;4.83;;;3.00;;
54983;SDS011;40884;53.562;9.940;2022-07-24T01:25:47;4.23;;;3.23;;
54983;SDS011;40884;53.562;9.940;2022-07-24T01:26:47;4.33;;;3.13;;
54983;SDS011;40884;53.562;9.940;2022-07-24T01:27:47;4.90;;;3.20;;
54983;SDS011;40884;53.562;9.940;2022-07-24T01:28:47;7.43;;;3.33;;
54983;SDS011;40884;53.562;9.940;2022-07-24T01:29:48;6.43;;;3.00;;
54983;SDS011;40884;53.562;9.940;2022-07-24T01:30:48;3.73;;;3.07;;
54983;SDS011;40884;53.562;9.940;2022-07-24T01:31:48;5.27;;;3.10;;
54983;SDS011;40884;53.562;9.940;2022-07-24T01:32:48;3.90;;;3.47;;
54983;SDS011;40884;53.562;9.940;2022-07-24T01:33:49;3.73;;;2.80;;
54983;SDS011;40884;53.562;9.940;2022-07-24T01:34:49;3.70;;;3.13;;
54983;SDS011;40884;53.562;9.940;2022-07-24T01:35:49;6.10;;;3.40;;
54983;SDS011;40884;53.562;9.940;2022-07-24T01:36:49;5.23;;;3.30;;
54983;SDS011;40884;53.562;9.940;2022-07-24T01:37:50;4.60;;;3.20;;
54983;SDS011;40884;53.562;9.940;2022-07-24T01:38:50;5.23;;;3.17;;
54983;SDS011;40884;53.562;9.940;2022-07-24T01:39:50;3.80;;;3.00;;
54983;SDS011;40884;53.562;9.940;2022-07-24T01:40:51;5.00;;;3.20;;
54983;SDS011;40884;53.562;9.940;2022-07-24T01:41:51;3.20;;;2.90;;
54983;SDS011;40884;53.562;9.940;2022-07-24T01:42:51;4.20;;;3.30;;
54983;SDS011;40884;53.562;9.940;2022-07-24T01:43:51;5.80;;;3.07;;
54983;SDS011;40884;53.562;9.940;2022-07-24T01:44:51;3.73;;;3.10;;
54983;SDS011;40884;53.562;9.940;2022-07-24T01:45:51;4.83;;;3.00;;
54983;SDS011;40884;53.562;9.940;2022-07-24T01:46:51;3.53;;;3.13;;
54983;SDS011;40884;53.562;9.940;2022-07-24T01:47:51;4.47;;;2.90;;
54983;SDS011;40884;53.562;9.940;2022-07-24T01:48:52;4.13;;;3.00;;
54983;SDS011;40884;53.562;9.940;2022-07-24T01:49:52;4.80;;;3.10;;
54983;SDS011;40884;53.562;9.940;2022-07-24T01:50:52;4.13;;;3.20;;
54983;SDS011;40884;53.562;9.940;2022-07-24T01:51:52;4.33;;;3.30;;
54983;SDS011;40884;53.562;9.940;2022-07-24T01:52:52;3.80;;;3.33;;
54983;SDS011;40884;53.562;9.940;2022-07-24T01:53:52;4.97;;;3.37;;
54983;SDS011;40884;53.562;9.940;2022-07-24T01:54:52;4.20;;;3.23;;
54983;SDS011;40884;53.562;9.940;2022-07-24T01:55:53;3.93;;;3.50;;
54983;SDS011;40884;53.562;9.940;2022-07-24T01:56:53;3.77;;;3.13;;
54983;SDS011;40884;53.562;9.940;2022-07-24T01:57:53;3.73;;;2.73;;
54983;SDS011;40884;53.562;9.940;2022-07-24T01:58:53;4.50;;;3.20;;
54983;SDS011;40884;53.562;9.940;2022-07-24T01:59:53;4.17;;;2.90;;
54983;SDS011;40884;53.562;9.940;2022-07-24T02:00:53;6.10;;;3.20;;
54983;SDS011;40884;53.562;9.940;2022-07-24T02:01:53;4.60;;;3.43;;
54983;SDS011;40884;53.562;9.940;2022-07-24T02:02:53;5.33;;;3.23;;
54983;SDS011;40884;53.562;9.940;2022-07-24T02:03:54;3.50;;;3.20;;
54983;SDS011;40884;53.562;9.940;2022-07-24T02:04:54;4.53;;;3.50;;
54983;SDS011;40884;53.562;9.940;2022-07-24T02:05:54;4.40;;;3.30;;
54983;SDS011;40884;53.562;9.940;2022-07-24T02:06:54;3.37;;;3.07;;
54983;SDS011;40884;53.562;9.940;2022-07-24T02:07:57;5.80;;;3.60;;
54983;SDS011;40884;53.562;9.940;2022-07-24T02:08:58;4.17;;;3.27;;
54983;SDS011;40884;53.562;9.940;2022-07-24T02:09:58;4.77;;;3.40;;
54983;SDS011;40884;53.562;9.940;2022-07-24T02:10:58;7.60;;;3.40;;
54983;SDS011;40884;53.562;9.940;2022-07-24T02:11:58;5.23;;;3.23;;
54983;SDS011;40884;53.562;9.940;2022-07-24T02:12:58;4.80;;;3.13;;
54983;SDS011;40884;53.562;9.940;2022-07-24T02:13:58;5.00;;;3.10;;
54983;SDS011;40884;53.562;9.940;2022-07-24T02:14:58;3.93;;;3.40;;
54983;SDS011;40884;53.562;9.940;2022-07-24T02:15:58;5.47;;;3.60;;
54983;SDS011;40884;53.562;9.940;2022-07-24T02:16:58;6.70;;;3.43;;
54983;SDS011;40884;53.562;9.940;2022-07-24T02:18:00;5.57;;;3.50;;
54983;SDS011;40884;53.562;9.940;2022-07-24T02:19:00;4.00;;;3.30;;
54983;SDS011;40884;53.562;9.940;2022-07-24T02:20:00;4.37;;;3.37;;
54983;SDS011;40884;53.562;9.940;2022-07-24T02:21:01;5.10;;;3.67;;
54983;SDS011;40884;53.562;9.940;2022-07-24T02:22:01;6.03;;;3.37;;
54983;SDS011;40884;53.562;9.940;2022-07-24T02:23:01;4.27;;;3.17;;
54983;SDS011;40884;53.562;9.940;2022-07-24T02:24:01;4.43;;;3.30;;
54983;SDS011;40884;53.562;9.940;2022-07-24T02:25:01;5.37;;;3.13;;
54983;SDS011;40884;53.562;9.940;2022-07-24T02:26:01;4.30;;;3.10;;
54983;SDS011;40884;53.562;9.940;2022-07-24T02:27:01;5.67;;;3.27;;
54983;SDS011;40884;53.562;9.940;2022-07-24T02:28:02;4.40;;;2.90;;
54983;SDS011;40884;53.562;9.940;2022-07-24T02:29:02;3.30;;;2.70;;
54983;SDS011;40884;53.562;9.940;2022-07-24T02:30:06;5.33;;;3.10;;
54983;SDS011;40884;53.562;9.940;2022-07-24T02:31:07;4.97;;;3.13;;
54983;SDS011;40884;53.562;9.940;2022-07-24T02:32:07;4.23;;;2.87;;
54983;SDS011;40884;53.562;9.940;2022-07-24T02:33:08;3.87;;;2.90;;
54983;SDS011;40884;53.562;9.940;2022-07-24T02:34:08;4.43;;;3.03;;
54983;SDS011;40884;53.562;9.940;2022-07-24T02:35:08;5.30;;;3.47;;
54983;SDS011;40884;53.562;9.940;2022-07-24T02:36:09;5.93;;;2.80;;
54983;SDS011;40884;53.562;9.940;2022-07-24T02:37:09;4.33;;;3.07;;
54983;SDS011;40884;53.562;9.940;2022-07-24T02:38:09;4.07;;;3.13;;
54983;SDS011;40884;53.562;9.940;2022-07-24T02:39:09;4.13;;;3.10;;
54983;SDS011;40884;53.562;9.940;2022-07-24T02:40:10;5.03;;;3.17;;
54983;SDS011;40884;53.562;9.940;2022-07-24T02:41:10;3.17;;;2.70;;
54983;SDS011;40884;53.562;9.940;2022-07-24T02:42:10;3.43;;;2.93;;
54983;SDS011;40884;53.562;9.940;2022-07-24T02:43:10;3.10;;;2.63;;
54983;SDS011;40884;53.562;9.940;2022-07-24T02:44:10;3.20;;;2.90;;
54983;SDS011;40884;53.562;9.940;2022-07-24T02:45:10;4.83;;;3.10;;
54983;SDS011;40884;53.562;9.940;2022-07-24T02:46:11;5.37;;;2.83;;
54983;SDS011;40884;53.562;9.940;2022-07-24T02:47:11;5.47;;;2.80;;
54983;SDS011;40884;53.562;9.940;2022-07-24T02:48:11;5.50;;;2.83;;
54983;SDS011;40884;53.562;9.940;2022-07-24T02:49:11;5.63;;;2.87;;
54983;SDS011;40884;53.562;9.940;2022-07-24T02:50:11;3.67;;;3.00;;
54983;SDS011;40884;53.562;9.940;2022-07-24T02:51:11;3.63;;;3.03;;
54983;SDS011;40884;53.562;9.940;2022-07-24T02:52:12;5.00;;;2.80;;
54983;SDS011;40884;53.562;9.940;2022-07-24T02:53:12;5.20;;;2.83;;
54983;SDS011;40884;53.562;9.940;2022-07-24T02:54:12;3.73;;;2.77;;
54983;SDS011;40884;53.562;9.940;2022-07-24T02:55:12;4.03;;;2.90;;
54983;SDS011;40884;53.562;9.940;2022-07-24T02:56:12;3.03;;;2.73;;
54983;SDS011;40884;53.562;9.940;2022-07-24T02:57:12;4.40;;;3.10;;
54983;SDS011;40884;53.562;9.940;2022-07-24T02:58:12;3.80;;;2.90;;
54983;SDS011;40884;53.562;9.940;2022-07-24T02:59:12;2.93;;;2.60;;
54983;SDS011;40884;53.562;9.940;2022-07-24T03:00:13;3.73;;;3.07;;
54983;SDS011;40884;53.562;9.940;2022-07-24T03:01:14;3.17;;;2.77;;
54983;SDS011;40884;53.562;9.940;2022-07-24T03:02:14;4.00;;;3.00;;
54983;SDS011;40884;53.562;9.940;2022-07-24T03:03:14;3.73;;;2.80;;
54983;SDS011;40884;53.562;9.940;2022-07-24T03:04:14;4.50;;;3.17;;
54983;SDS011;40884;53.562;9.940;2022-07-24T03:05:14;5.10;;;2.90;;
54983;SDS011;40884;53.562;9.940;2022-07-24T03:06:14;6.77;;;3.20;;
54983;SDS011;40884;53.562;9.940;2022-07-24T03:07:15;3.60;;;2.90;;
54983;SDS011;40884;53.562;9.940;2022-07-24T03:08:15;5.10;;;3.20;;
54983;SDS011;40884;53.562;9.940;2022-07-24T03:09:15;4.70;;;2.90;;
54983;SDS011;40884;53.562;9.940;2022-07-24T03:10:15;5.27;;;3.40;;
54983;SDS011;40884;53.562;9.940;2022-07-24T03:11:15;5.03;;;3.20;;
54983;SDS011;40884;53.562;9.940;2022-07-24T03:12:16;3.67;;;3.33;;
54983;SDS011;40884;53.562;9.940;2022-07-24T03:13:16;4.47;;;3.60;;
54983;SDS011;40884;53.562;9.940;2022-07-24T03:14:16;3.77;;;3.13;;
54983;SDS011;40884;53.562;9.940;2022-07-24T03:15:16;5.60;;;3.30;;
54983;SDS011;40884;53.562;9.940;2022-07-24T03:16:16;5.67;;;3.37;;
54983;SDS011;40884;53.562;9.940;2022-07-24T03:17:16;5.00;;;3.53;;
54983;SDS011;40884;53.562;9.940;2022-07-24T03:18:16;3.97;;;3.50;;
54983;SDS011;40884;53.562;9.940;2022-07-24T03:19:17;4.07;;;3.00;;
54983;SDS011;40884;53.562;9.940;2022-07-24T03:20:17;4.10;;;3.50;;
54983;SDS011;40884;53.562;9.940;2022-07-24T03:21:17;4.70;;;3.60;;
54983;SDS011;40884;53.562;9.940;2022-07-24T03:22:17;6.53;;;3.47;;
54983;SDS011;40884;53.562;9.940;2022-07-24T03:23:17;4.83;;;3.43;;
54983;SDS011;40884;53.562;9.940;2022-07-24T03:24:18;6.23;;;3.20;;
54983;SDS011;40884;53.562;9.940;2022-07-24T03:25:18;4.73;;;3.47;;
54983;SDS011;40884;53.562;9.940;2022-07-24T03:26:18;6.07;;;3.83;;
54983;SDS011;40884;53.562;9.940;2022-07-24T03:27:18;3.80;;;3.50;;
54983;SDS011;40884;53.562;9.940;2022-07-24T03:28:18;4.37;;;3.87;;
54983;SDS011;40884;53.562;9.940;2022-07-24T03:29:18;4.60;;;3.53;;
54983;SDS011;40884;53.562;9.940;2022-07-24T03:30:19;4.87;;;3.63;;
54983;SDS011;40884;53.562;9.940;2022-07-24T03:31:19;5.77;;;4.13;;
54983;SDS011;40884;53.562;9.940;2022-07-24T03:32:19;5.33;;;3.90;;
54983;SDS011;40884;53.562;9.940;2022-07-24T03:33:19;5.60;;;4.10;;
54983;SDS011;40884;53.562;9.940;2022-07-24T03:34:19;4.63;;;3.90;;
54983;SDS011;40884;53.562;9.940;2022-07-24T03:35:19;4.50;;;4.00;;
54983;SDS011;40884;53.562;9.940;2022-07-24T03:36:19;5.07;;;4.07;;
54983;SDS011;40884;53.562;9.940;2022-07-24T03:37:19;4.90;;;4.10;;
54983;SDS011;40884;53.562;9.940;2022-07-24T03:38:20;4.63;;;4.20;;
54983;SDS011;40884;53.562;9.940;2022-07-24T03:39:20;5.93;;;4.57;;
54983;SDS011;40884;53.562;9.940;2022-07-24T03:40:20;6.27;;;4.40;;
54983;SDS011;40884;53.562;9.940;2022-07-24T03:41:20;5.33;;;3.60;;
54983;SDS011;40884;53.562;9.940;2022-07-24T03:42:20;5.60;;;3.77;;
54983;SDS011;40884;53.562;9.940;2022-07-24T03:43:20;5.33;;;4.10;;
54983;SDS011;40884;53.562;9.940;2022-07-24T03:44:20;5.00;;;3.60;;
54983;SDS011;40884;53.562;9.940;2022-07-24T03:45:21;4.27;;;3.60;;
54983;SDS011;40884;53.562;9.940;2022-07-24T03:46:21;4.53;;;3.70;;
54983;SDS011;40884;53.562;9.940;2022-07-24T03:47:21;3.80;;;3.50;;
54983;SDS011;40884;53.562;9.940;2022-07-24T03:48:21;4.23;;;3.37;;
54983;SDS011;40884;53.562;9.940;2022-07-24T03:49:21;5.50;;;3.47;;
54983;SDS011;40884;53.562;9.940;2022-07-24T03:50:21;5.10;;;3.40;;
54983;SDS011;40884;53.562;9.940;2022-07-24T03:51:21;4.40;;;3.50;;
54983;SDS011;40884;53.562;9.940;2022-07-24T03:52:22;5.03;;;3.63;;
54983;SDS011;40884;53.562;9.940;2022-07-24T03:53:22;4.53;;;3.20;;
54983;SDS011;40884;53.562;9.940;2022-07-24T03:54:22;4.53;;;3.50;;
54983;SDS011;40884;53.562;9.940;2022-07-24T03:55:22;5.77;;;3.50;;
54983;SDS011;40884;53.562;9.940;2022-07-24T03:56:22;3.50;;;3.20;;
54983;SDS011;40884;53.562;9.940;2022-07-24T03:57:22;6.73;;;3.60;;
54983;SDS011;40884;53.562;9.940;2022-07-24T03:58:23;4.37;;;3.43;;
54983;SDS011;40884;53.562;9.940;2022-07-24T03:59:23;7.07;;;3.43;;
54983;SDS011;40884;53.562;9.940;2022-07-24T04:00:23;5.87;;;3.33;;
54983;SDS011;40884;53.562;9.940;2022-07-24T04:01:23;5.17;;;3.27;;
54983;SDS011;40884;53.562;9.940;2022-07-24T04:02:23;6.37;;;3.60;;
54983;SDS011;40884;53.562;9.940;2022-07-24T04:03:23;4.83;;;3.50;;
54983;SDS011;40884;53.562;9.940;2022-07-24T04:04:23;3.70;;;3.37;;
54983;SDS011;40884;53.562;9.940;2022-07-24T04:05:24;4.80;;;3.60;;
54983;SDS011;40884;53.562;9.940;2022-07-24T04:06:24;5.37;;;3.40;;
54983;SDS011;40884;53.562;9.940;2022-07-24T04:07:24;3.70;;;3.03;;
54983;SDS011;40884;53.562;9.940;2022-07-24T04:08:24;3.37;;;2.93;;
54983;SDS011;40884;53.562;9.940;2022-07-24T04:09:24;5.13;;;3.10;;
54983;SDS011;40884;53.562;9.940;2022-07-24T04:10:24;3.83;;;3.30;;
54983;SDS011;40884;53.562;9.940;2022-07-24T04:11:25;3.47;;;3.00;;
54983;SDS011;40884;53.562;9.940;2022-07-24T04:12:25;5.03;;;3.13;;
54983;SDS011;40884;53.562;9.940;2022-07-24T04:13:25;5.97;;;3.70;;
54983;SDS011;40884;53.562;9.940;2022-07-24T04:14:26;4.10;;;3.10;;
54983;SDS011;40884;53.562;9.940;2022-07-24T04:15:26;5.63;;;2.83;;
54983;SDS011;40884;53.562;9.940;2022-07-24T04:16:26;5.10;;;3.40;;
54983;SDS011;40884;53.562;9.940;2022-07-24T04:17:26;5.87;;;3.50;;
54983;SDS011;40884;53.562;9.940;2022-07-24T04:18:26;5.73;;;3.57;;
54983;SDS011;40884;53.562;9.940;2022-07-24T04:19:26;4.90;;;3.17;;
54983;SDS011;40884;53.562;9.940;2022-07-24T04:20:27;4.93;;;3.50;;
54983;SDS011;40884;53.562;9.940;2022-07-24T04:21:27;4.80;;;2.80;;
54983;SDS011;40884;53.562;9.940;2022-07-24T04:22:27;4.17;;;2.90;;
54983;SDS011;40884;53.562;9.940;2022-07-24T04:23:27;6.27;;;3.40;;
54983;SDS011;40884;53.562;9.940;2022-07-24T04:24:27;4.27;;;2.90;;
54983;SDS011;40884;53.562;9.940;2022-07-24T04:25:27;4.43;;;3.43;;
54983;SDS011;40884;53.562;9.940;2022-07-24T04:26:27;3.17;;;2.87;;
54983;SDS011;40884;53.562;9.940;2022-07-24T04:27:27;4.27;;;3.20;;
54983;SDS011;40884;53.562;9.940;2022-07-24T04:28:28;4.50;;;2.90;;
54983;SDS011;40884;53.562;9.940;2022-07-24T04:29:28;4.37;;;3.43;;
54983;SDS011;40884;53.562;9.940;2022-07-24T04:30:28;4.10;;;2.87;;
54983;SDS011;40884;53.562;9.940;2022-07-24T04:31:28;3.90;;;3.10;;
54983;SDS011;40884;53.562;9.940;2022-07-24T04:32:28;4.40;;;3.10;;
54983;SDS011;40884;53.562;9.940;2022-07-24T04:33:29;3.97;;;2.90;;
54983;SDS011;40884;53.562;9.940;2022-07-24T04:34:29;4.80;;;3.00;;
54983;SDS011;40884;53.562;9.940;2022-07-24T04:35:29;4.27;;;2.43;;
54983;SDS011;40884;53.562;9.940;2022-07-24T04:36:29;3.10;;;2.80;;
54983;SDS011;40884;53.562;9.940;2022-07-24T04:37:29;4.20;;;2.73;;
54983;SDS011;40884;53.562;9.940;2022-07-24T04:38:29;5.13;;;3.13;;
54983;SDS011;40884;53.562;9.940;2022-07-24T04:39:31;3.03;;;2.73;;
54983;SDS011;40884;53.562;9.940;2022-07-24T04:40:31;2.83;;;2.50;;
54983;SDS011;40884;53.562;9.940;2022-07-24T04:41:31;4.50;;;2.67;;
54983;SDS011;40884;53.562;9.940;2022-07-24T04:42:31;3.00;;;2.70;;
54983;SDS011;40884;53.562;9.940;2022-07-24T04:43:31;3.57;;;2.87;;
54983;SDS011;40884;53.562;9.940;2022-07-24T04:44:31;4.03;;;2.60;;
54983;SDS011;40884;53.562;9.940;2022-07-24T04:45:32;2.70;;;2.50;;
54983;SDS011;40884;53.562;9.940;2022-07-24T04:46:32;3.37;;;2.37;;
54983;SDS011;40884;53.562;9.940;2022-07-24T04:47:32;3.03;;;2.50;;
54983;SDS011;40884;53.562;9.940;2022-07-24T04:48:32;3.13;;;2.07;;
54983;SDS011;40884;53.562;9.940;2022-07-24T04:49:32;5.23;;;2.70;;
54983;SDS011;40884;53.562;9.940;2022-07-24T04:50:32;4.53;;;2.70;;
54983;SDS011;40884;53.562;9.940;2022-07-24T04:51:32;6.23;;;2.73;;
54983;SDS011;40884;53.562;9.940;2022-07-24T04:52:32;4.77;;;2.87;;
54983;SDS011;40884;53.562;9.940;2022-07-24T04:53:33;4.40;;;2.70;;
54983;SDS011;40884;53.562;9.940;2022-07-24T04:54:33;2.87;;;2.50;;
54983;SDS011;40884;53.562;9.940;2022-07-24T04:55:33;3.47;;;2.60;;
54983;SDS011;40884;53.562;9.940;2022-07-24T04:56:33;3.60;;;2.47;;
54983;SDS011;40884;53.562;9.940;2022-07-24T04:57:33;5.17;;;2.50;;
54983;SDS011;40884;53.562;9.940;2022-07-24T04:58:33;4.33;;;2.50;;
54983;SDS011;40884;53.562;9.940;2022-07-24T04:59:34;4.03;;;2.70;;
54983;SDS011;40884;53.562;9.940;2022-07-24T05:00:34;4.73;;;2.60;;
54983;SDS011;40884;53.562;9.940;2022-07-24T05:01:34;4.40;;;2.77;;
54983;SDS011;40884;53.562;9.940;2022-07-24T05:02:34;5.43;;;3.20;;
54983;SDS011;40884;53.562;9.940;2022-07-24T05:03:34;4.30;;;3.03;;
54983;SDS011;40884;53.562;9.940;2022-07-24T05:04:34;5.37;;;2.77;;
54983;SDS011;40884;53.562;9.940;2022-07-24T05:05:35;3.10;;;2.80;;
54983;SDS011;40884;53.562;9.940;2022-07-24T05:06:35;4.00;;;2.90;;
54983;SDS011;40884;53.562;9.940;2022-07-24T05:07:35;4.57;;;2.90;;
54983;SDS011;40884;53.562;9.940;2022-07-24T05:08:35;4.33;;;2.80;;
54983;SDS011;40884;53.562;9.940;2022-07-24T05:09:35;5.27;;;2.60;;
54983;SDS011;40884;53.562;9.940;2022-07-24T05:10:35;3.40;;;2.57;;
54983;SDS011;40884;53.562;9.940;2022-07-24T05:11:35;4.20;;;2.60;;
54983;SDS011;40884;53.562;9.940;2022-07-24T05:12:36;3.70;;;2.47;;
54983;SDS011;40884;53.562;9.940;2022-07-24T05:13:36;3.77;;;2.40;;
54983;SDS011;40884;53.562;9.940;2022-07-24T05:14:36;3.07;;;2.50;;
54983;SDS011;40884;53.562;9.940;2022-07-24T05:15:36;3.43;;;2.40;;
54983;SDS011;40884;53.562;9.940;2022-07-24T05:16:36;4.70;;;2.43;;
54983;SDS011;40884;53.562;9.940;2022-07-24T05:17:36;4.07;;;2.20;;
54983;SDS011;40884;53.562;9.940;2022-07-24T05:18:37;3.87;;;2.23;;
54983;SDS011;40884;53.562;9.940;2022-07-24T05:19:37;2.87;;;2.07;;
54983;SDS011;40884;53.562;9.940;2022-07-24T05:20:37;4.83;;;2.17;;
54983;SDS011;40884;53.562;9.940;2022-07-24T05:21:37;2.50;;;1.90;;
54983;SDS011;40884;53.562;9.940;2022-07-24T05:22:37;2.90;;;2.10;;
54983;SDS011;40884;53.562;9.940;2022-07-24T05:23:37;2.87;;;1.90;;
54983;SDS011;40884;53.562;9.940;2022-07-24T05:24:38;4.43;;;2.00;;
54983;SDS011;40884;53.562;9.940;2022-07-24T05:25:38;4.80;;;2.30;;
54983;SDS011;40884;53.562;9.940;2022-07-24T05:26:38;3.50;;;1.90;;
54983;SDS011;40884;53.562;9.940;2022-07-24T05:27:38;1.73;;;1.63;;
54983;SDS011;40884;53.562;9.940;2022-07-24T05:28:38;3.20;;;2.07;;
54983;SDS011;40884;53.562;9.940;2022-07-24T05:29:38;3.03;;;2.03;;
54983;SDS011;40884;53.562;9.940;2022-07-24T05:30:38;4.77;;;2.20;;
54983;SDS011;40884;53.562;9.940;2022-07-24T05:31:39;4.17;;;2.00;;
54983;SDS011;40884;53.562;9.940;2022-07-24T05:32:39;3.57;;;2.00;;
54983;SDS011;40884;53.562;9.940;2022-07-24T05:33:39;3.03;;;1.60;;
54983;SDS011;40884;53.562;9.940;2022-07-24T05:34:39;2.90;;;1.80;;
54983;SDS011;40884;53.562;9.940;2022-07-24T05:35:39;3.20;;;1.77;;
54983;SDS011;40884;53.562;9.940;2022-07-24T05:36:39;3.67;;;1.93;;
54983;SDS011;40884;53.562;9.940;2022-07-24T05:37:39;2.33;;;1.77;;
54983;SDS011;40884;53.562;9.940;2022-07-24T05:38:39;3.10;;;1.70;;
54983;SDS011;40884;53.562;9.940;2022-07-24T05:39:40;4.03;;;2.13;;
54983;SDS011;40884;53.562;9.940;2022-07-24T05:40:40;3.83;;;1.97;;
54983;SDS011;40884;53.562;9.940;2022-07-24T05:41:40;3.70;;;1.77;;
54983;SDS011;40884;53.562;9.940;2022-07-24T05:42:40;2.50;;;1.80;;
54983;SDS011;40884;53.562;9.940;2022-07-24T05:43:40;3.37;;;2.00;;
54983;SDS011;40884;53.562;9.940;2022-07-24T05:44:40;3.53;;;1.63;;
54983;SDS011;40884;53.562;9.940;2022-07-24T05:45:40;3.73;;;1.70;;
54983;SDS011;40884;53.562;9.940;2022-07-24T05:46:40;3.40;;;2.00;;
54983;SDS011;40884;53.562;9.940;2022-07-24T05:47:41;2.73;;;1.60;;
54983;SDS011;40884;53.562;9.940;2022-07-24T05:48:41;2.73;;;1.60;;
54983;SDS011;40884;53.562;9.940;2022-07-24T05:49:41;4.60;;;1.80;;
54983;SDS011;40884;53.562;9.940;2022-07-24T05:50:41;1.70;;;1.53;;
54983;SDS011;40884;53.562;9.940;2022-07-24T05:51:41;1.87;;;1.40;;
54983;SDS011;40884;53.562;9.940;2022-07-24T05:52:41;3.67;;;1.83;;
54983;SDS011;40884;53.562;9.940;2022-07-24T05:53:41;3.47;;;1.90;;
54983;SDS011;40884;53.562;9.940;2022-07-24T05:54:42;2.70;;;1.70;;
54983;SDS011;40884;53.562;9.940;2022-07-24T05:55:42;3.57;;;1.60;;
54983;SDS011;40884;53.562;9.940;2022-07-24T05:56:42;3.23;;;1.70;;
54983;SDS011;40884;53.562;9.940;2022-07-24T05:57:42;4.13;;;1.77;;
54983;SDS011;40884;53.562;9.940;2022-07-24T05:58:42;5.07;;;1.63;;
54983;SDS011;40884;53.562;9.940;2022-07-24T05:59:42;3.00;;;1.50;;
54983;SDS011;40884;53.562;9.940;2022-07-24T06:00:43;5.53;;;1.60;;
54983;SDS011;40884;53.562;9.940;2022-07-24T06:01:43;1.77;;;1.60;;
54983;SDS011;40884;53.562;9.940;2022-07-24T06:02:43;4.40;;;1.60;;